Time;durP1;ratioP1;P1;durP2;ratioP2;P2;SDS_P1;SDS_P2;PMS_P1;PMS_P2;Temp;Humidity;BMP_temperature;BMP_pressure;BME280_temperature;BME280_humidity;BME280_pressure;Samples;Min_cycle;Max_cycle;Signal;HPM_P1;HPM_P2
2024/01/19 00:01:47;;;;;;;36.63;21.52;;;;;;;8.98;100.00;98907.16;5076277;28;20055;-64
2024/01/19 00:04:13;;;;;;;37.58;19.10;;;;;;;9.05;100.00;98911.56;5078183;28;20028;-63
2024/01/19 00:06:41;;;;;;;36.28;20.17;;;;;;;9.03;100.00;98904.81;5077343;28;20365;-64
2024/01/19 00:09:07;;;;;;;39.25;20.17;;;;;;;9.09;100.00;98918.16;5077596;28;20047;-63
2024/01/19 00:11:33;;;;;;;34.83;19.73;;;;;;;9.12;100.00;98915.16;5077321;28;20063;-65
2024/01/19 00:13:58;;;;;;;34.22;18.88;;;;;;;9.20;100.00;98911.66;5078669;28;20028;-65
2024/01/19 00:16:23;;;;;;;32.38;19.70;;;;;;;9.25;100.00;98911.97;5077141;28;20353;-63
2024/01/19 00:18:49;;;;;;;34.15;17.70;;;;;;;9.30;100.00;98906.97;5078019;28;20253;-63
2024/01/19 00:21:15;;;;;;;29.35;17.92;;;;;;;9.39;100.00;98905.13;5073871;28;20037;-64
2024/01/19 00:23:40;;;;;;;31.65;17.33;;;;;;;9.41;100.00;98903.13;5077384;28;20492;-63
2024/01/19 00:26:06;;;;;;;30.10;17.33;;;;;;;9.47;100.00;98897.97;5076987;28;20522;-64
2024/01/19 00:28:32;;;;;;;29.20;16.45;;;;;;;9.51;100.00;98888.69;5077116;28;20103;-65
2024/01/19 00:30:57;;;;;;;25.10;15.38;;;;;;;9.47;100.00;98876.84;5078091;28;20036;-64
2024/01/19 00:33:23;;;;;;;26.67;16.02;;;;;;;9.43;100.00;98859.69;5075733;28;20029;-63
2024/01/19 00:35:48;;;;;;;30.02;15.90;;;;;;;9.53;100.00;98849.69;5078390;28;20040;-64
2024/01/19 00:38:13;;;;;;;27.58;16.75;;;;;;;9.62;100.00;98858.38;5075614;28;20028;-63
2024/01/19 00:40:39;;;;;;;45.97;21.85;;;;;;;9.65;100.00;98865.97;5077764;28;20036;-64
2024/01/19 00:43:04;;;;;;;38.33;19.13;;;;;;;9.74;100.00;98849.03;5076786;28;20219;-65
2024/01/19 00:45:30;;;;;;;35.40;18.73;;;;;;;9.81;100.00;98855.25;5077479;28;20036;-64
2024/01/19 00:47:55;;;;;;;29.90;18.55;;;;;;;9.89;100.00;98841.97;5076913;28;20033;-63
2024/01/19 00:50:21;;;;;;;33.70;18.15;;;;;;;9.97;100.00;98851.63;5077026;28;20216;-63
2024/01/19 00:52:46;;;;;;;30.80;18.00;;;;;;;9.98;100.00;98853.28;5077175;28;20234;-64
2024/01/19 00:55:12;;;;;;;29.67;18.10;;;;;;;9.95;100.00;98860.75;5076229;28;20052;-64
2024/01/19 00:57:37;;;;;;;30.38;17.38;;;;;;;9.96;100.00;98847.34;5076627;28;20068;-63
2024/01/19 01:00:04;;;;;;;34.50;19.30;;;;;;;9.86;100.00;98826.44;5076395;28;20035;-63
2024/01/19 01:02:29;;;;;;;30.38;19.85;;;;;;;9.97;100.00;98813.78;5076484;28;20048;-64
2024/01/19 01:04:55;;;;;;;30.42;18.92;;;;;;;9.97;100.00;98813.78;5076843;28;20350;-63
2024/01/19 01:07:21;;;;;;;28.52;17.35;;;;;;;9.88;100.00;98813.06;5077192;28;20028;-64
2024/01/19 01:09:47;;;;;;;26.67;16.38;;;;;;;9.86;100.00;98812.41;5076409;28;20232;-65
2024/01/19 01:12:13;;;;;;;27.63;15.70;;;;;;;9.80;100.00;98808.66;5077375;28;20074;-63
2024/01/19 01:14:38;;;;;;;28.42;16.15;;;;;;;9.66;100.00;98819.22;5075237;28;20074;-63
2024/01/19 01:17:04;;;;;;;23.15;14.90;;;;;;;9.49;100.00;98814.06;5076958;28;20032;-64
2024/01/19 01:19:29;;;;;;;26.60;17.20;;;;;;;9.42;100.00;98821.06;5074841;28;20032;-63
2024/01/19 01:21:55;;;;;;;28.10;16.00;;;;;;;9.35;100.00;98819.25;5077916;28;20028;-65
2024/01/19 01:24:22;;;;;;;27.75;16.92;;;;;;;9.31;100.00;98816.16;5076662;28;20066;-64
2024/01/19 01:26:47;;;;;;;26.10;16.70;;;;;;;8.99;100.00;98822.47;5076257;28;20323;-64
2024/01/19 01:29:13;;;;;;;27.55;16.58;;;;;;;9.02;100.00;98823.94;5076033;28;20025;-64
2024/01/19 01:31:38;;;;;;;31.20;18.00;;;;;;;9.08;100.00;98823.25;5075762;28;20100;-64
2024/01/19 01:34:04;;;;;;;30.65;17.00;;;;;;;8.70;100.00;98815.22;5075882;28;20033;-63
2024/01/19 01:36:30;;;;;;;28.17;16.77;;;;;;;8.82;100.00;98811.19;5075768;28;20228;-65
2024/01/19 01:38:55;;;;;;;35.33;19.17;;;;;;;8.69;100.00;98795.09;5075359;28;20024;-65
2024/01/19 01:41:21;;;;;;;31.85;17.65;;;;;;;8.80;100.00;98801.81;5075746;28;20028;-63
2024/01/19 01:43:46;;;;;;;30.50;18.08;;;;;;;8.88;100.00;98793.84;5076902;28;20029;-63
2024/01/19 01:46:12;;;;;;;30.58;17.67;;;;;;;8.74;100.00;98786.66;5075518;28;20063;-63
2024/01/19 01:48:38;;;;;;;30.08;18.33;;;;;;;8.82;100.00;98797.16;5076695;28;20029;-63
2024/01/19 01:51:04;;;;;;;32.08;17.58;;;;;;;8.79;100.00;98797.53;5074026;28;20044;-64
2024/01/19 01:53:31;;;;;;;33.88;18.73;;;;;;;8.89;100.00;98801.56;5077348;28;20034;-64
2024/01/19 01:55:57;;;;;;;38.30;20.45;;;;;;;9.08;100.00;98796.84;5074664;28;20079;-63
2024/01/19 01:58:23;;;;;;;35.80;21.13;;;;;;;9.18;100.00;98794.78;5075502;28;20036;-64
2024/01/19 02:00:50;;;;;;;35.58;19.60;;;;;;;9.32;100.00;98806.41;5074059;28;20047;-64
2024/01/19 02:03:16;;;;;;;36.05;19.20;;;;;;;9.46;100.00;98808.31;5075414;28;20066;-64
2024/01/19 02:05:42;;;;;;;33.92;19.38;;;;;;;9.56;100.00;98804.41;5075541;28;20036;-64
2024/01/19 02:08:08;;;;;;;25.77;15.95;;;;;;;9.54;100.00;98806.41;5075041;28;20062;-64
2024/01/19 02:10:33;;;;;;;28.98;16.42;;;;;;;9.35;100.00;98803.41;5074446;28;20033;-63
2024/01/19 02:12:59;;;;;;;28.40;17.38;;;;;;;9.24;100.00;98807.28;5073491;28;20134;-64
2024/01/19 02:15:29;;;;;;;29.13;17.35;;;;;;;9.21;100.00;98803.19;5075641;28;20036;-63
2024/01/19 02:17:54;;;;;;;30.35;17.15;;;;;;;9.11;100.00;98814.97;5074291;28;20033;-64
2024/01/19 02:20:20;;;;;;;33.83;17.88;;;;;;;9.01;100.00;98823.13;5076099;28;20033;-63
2024/01/19 02:22:47;;;;;;;31.63;18.88;;;;;;;8.93;100.00;98824.00;5073718;28;20024;-64
2024/01/19 02:25:13;;;;;;;34.65;18.83;;;;;;;8.88;100.00;98831.63;5075668;28;20043;-64
2024/01/19 02:27:39;;;;;;;37.20;20.15;;;;;;;8.83;100.00;98835.78;5074848;28;20036;-63
2024/01/19 02:30:08;;;;;;;33.95;19.95;;;;;;;8.81;100.00;98830.66;5075577;28;20070;-64
2024/01/19 02:32:34;;;;;;;36.65;19.08;;;;;;;8.85;100.00;98833.78;5073679;28;20036;-64
2024/01/19 02:34:59;;;;;;;38.83;20.95;;;;;;;8.80;100.00;98834.28;5075187;28;20036;-63
2024/01/19 02:37:25;;;;;;;42.40;21.25;;;;;;;8.76;100.00;98851.47;5073369;28;20032;-64
2024/01/19 02:39:51;;;;;;;44.15;23.27;;;;;;;8.73;100.00;98843.06;5074999;28;20044;-65
2024/01/19 02:42:16;;;;;;;47.50;23.90;;;;;;;8.76;100.00;98830.34;5073971;28;20038;-64
2024/01/19 02:44:42;;;;;;;44.25;23.08;;;;;;;8.69;100.00;98836.50;5075048;28;20250;-64
2024/01/19 02:47:07;;;;;;;47.55;24.50;;;;;;;8.59;100.00;98840.16;5075054;28;20043;-64
2024/01/19 02:49:33;;;;;;;46.17;24.65;;;;;;;8.60;100.00;98847.09;5074513;28;20028;-63
2024/01/19 02:51:58;;;;;;;48.92;25.17;;;;;;;8.64;100.00;98837.84;5074082;28;20067;-63
2024/01/19 02:54:24;;;;;;;48.45;24.33;;;;;;;8.77;100.00;98844.38;5069704;28;20028;-63
2024/01/19 02:56:49;;;;;;;43.15;24.58;;;;;;;8.80;100.00;98841.41;5075480;28;20048;-65
2024/01/19 02:59:15;;;;;;;49.08;24.20;;;;;;;8.86;100.00;98841.53;5071948;28;20063;-65
2024/01/19 03:01:40;;;;;;;43.33;25.55;;;;;;;8.94;100.00;98838.03;5077175;28;20075;-63
2024/01/19 03:04:06;;;;;;;47.70;24.52;;;;;;;9.08;100.00;98841.72;5077096;28;20028;-64
2024/01/19 03:06:31;;;;;;;50.10;27.05;;;;;;;9.09;100.00;98838.09;5079399;28;20064;-63
2024/01/19 03:08:57;;;;;;;48.72;25.05;;;;;;;9.15;100.00;98847.97;5078973;28;20111;-63
2024/01/19 03:11:22;;;;;;;44.90;24.90;;;;;;;9.21;100.00;98855.19;5078945;28;20040;-64
2024/01/19 03:13:50;;;;;;;44.47;24.00;;;;;;;9.26;100.00;98860.75;5078449;28;20318;-64
2024/01/19 03:16:16;;;;;;;39.53;22.65;;;;;;;9.25;100.00;98861.75;5078922;28;20334;-64
2024/01/19 03:18:41;;;;;;;38.40;24.45;;;;;;;9.34;100.00;98865.19;5077060;28;20032;-64
2024/01/19 03:21:07;;;;;;;46.05;26.92;;;;;;;9.34;100.00;98875.75;5077465;28;20361;-64
2024/01/19 03:23:33;;;;;;;37.42;23.98;;;;;;;9.29;100.00;98873.63;5079159;28;20036;-63
2024/01/19 03:25:58;;;;;;;37.75;22.10;;;;;;;9.26;100.00;98872.16;5077578;28;20047;-64
2024/01/19 03:28:24;;;;;;;37.85;21.73;;;;;;;9.34;100.00;98873.09;5079116;28;20114;-64
2024/01/19 03:30:49;;;;;;;40.05;23.55;;;;;;;9.35;100.00;98877.38;5077981;28;20036;-63
2024/01/19 03:33:15;;;;;;;51.67;29.15;;;;;;;9.29;100.00;98877.09;5077562;28;20309;-65
2024/01/19 03:35:41;;;;;;;43.00;26.85;;;;;;;9.26;100.00;98881.91;5077730;28;20043;-65
2024/01/19 03:38:06;;;;;;;40.85;24.02;;;;;;;9.27;100.00;98883.53;5078734;28;20357;-63
2024/01/19 03:40:31;;;;;;;34.35;21.85;;;;;;;9.27;100.00;98881.72;5077498;28;20032;-63
2024/01/19 03:42:57;;;;;;;39.50;23.33;;;;;;;9.36;100.00;98879.03;5077833;28;20044;-64
2024/01/19 03:45:22;;;;;;;35.70;20.67;;;;;;;9.39;100.00;98868.97;5077934;28;20047;-63
2024/01/19 03:47:48;;;;;;;39.55;22.08;;;;;;;9.44;100.00;98865.78;5078311;28;20318;-65
2024/01/19 03:50:14;;;;;;;38.38;23.20;;;;;;;9.49;100.00;98868.72;5078007;28;20028;-64
2024/01/19 03:52:40;;;;;;;40.33;23.40;;;;;;;9.49;100.00;98869.56;5078286;28;20082;-64
2024/01/19 03:55:06;;;;;;;37.75;22.77;;;;;;;9.45;100.00;98859.50;5078038;28;20059;-64
2024/01/19 03:57:31;;;;;;;33.67;21.73;;;;;;;9.51;100.00;98859.63;5077039;28;20047;-64
2024/01/19 03:59:57;;;;;;;40.40;22.52;;;;;;;9.50;100.00;98870.38;5078577;28;20040;-64
2024/01/19 04:02:22;;;;;;;32.95;21.15;;;;;;;9.53;100.00;98865.56;5076686;28;20040;-63
2024/01/19 04:04:48;;;;;;;39.45;21.73;;;;;;;9.53;100.00;98864.75;5078314;28;20039;-65
2024/01/19 04:07:14;;;;;;;39.63;23.00;;;;;;;9.47;100.00;98863.63;5076692;28;20036;-65
2024/01/19 04:09:40;;;;;;;38.00;22.55;;;;;;;9.44;100.00;98861.34;5076565;28;20040;-63
2024/01/19 04:12:17;;;;;;;37.55;21.73;;;;;;;9.37;100.00;98857.75;5077145;28;20041;-64
2024/01/19 04:14:44;;;;;;;40.17;22.50;;;;;;;9.32;100.00;98857.44;5078159;28;20035;-63
2024/01/19 04:17:10;;;;;;;38.38;22.90;;;;;;;9.28;100.00;98856.94;5077671;28;20230;-64
2024/01/19 04:19:40;;;;;;;35.97;21.35;;;;;;;9.34;100.00;98854.59;5078524;28;20257;-65
2024/01/19 04:22:05;;;;;;;33.78;20.30;;;;;;;9.32;100.00;98853.97;5077063;28;20040;-64
2024/01/19 04:24:31;;;;;;;34.70;20.10;;;;;;;9.29;100.00;98847.22;5076738;28;20036;-64
2024/01/19 04:26:57;;;;;;;33.13;20.08;;;;;;;9.37;100.00;98847.19;5078198;28;20043;-63
2024/01/19 04:29:22;;;;;;;33.75;21.38;;;;;;;9.41;100.00;98858.22;5077806;28;20037;-64
2024/01/19 04:31:48;;;;;;;38.90;22.08;;;;;;;9.34;100.00;98858.06;5077410;28;20078;-64
2024/01/19 04:34:13;;;;;;;39.00;21.98;;;;;;;9.36;100.00;98865.81;5078097;28;20319;-64
2024/01/19 04:36:39;;;;;;;33.25;19.20;;;;;;;9.43;100.00;98858.88;5078435;28;20285;-64
2024/01/19 04:39:05;;;;;;;34.65;20.35;;;;;;;9.51;100.00;98862.28;5077176;28;20289;-64
2024/01/19 04:41:31;;;;;;;38.75;24.02;;;;;;;9.49;100.00;98863.44;5078899;28;20044;-64
2024/01/19 04:43:57;;;;;;;41.30;23.60;;;;;;;9.44;100.00;98874.53;5076431;28;20382;-63
2024/01/19 04:46:22;;;;;;;51.65;26.42;;;;;;;9.38;100.00;98875.25;5078669;28;20037;-64
2024/01/19 04:48:48;;;;;;;40.90;24.02;;;;;;;9.36;100.00;98858.72;5077312;28;20551;-64
2024/01/19 04:51:13;;;;;;;43.00;23.25;;;;;;;9.47;100.00;98871.56;5077979;28;20043;-64
2024/01/19 04:53:39;;;;;;;32.67;20.90;;;;;;;9.51;100.00;98875.47;5075585;28;20206;-65
2024/01/19 04:56:05;;;;;;;30.60;19.30;;;;;;;9.44;100.00;98881.66;5076582;28;20041;-65
2024/01/19 04:58:33;;;;;;;30.83;18.98;;;;;;;9.46;100.00;98883.13;5075581;28;20033;-64
2024/01/19 05:00:58;;;;;;;33.33;18.50;;;;;;;9.47;100.00;98884.75;5076551;28;20068;-64
2024/01/19 05:03:23;;;;;;;33.67;18.95;;;;;;;9.49;100.00;98879.31;5077954;28;20040;-64
2024/01/19 05:05:49;;;;;;;27.70;18.42;;;;;;;9.51;100.00;98886.06;5077640;28;20338;-63
2024/01/19 05:08:14;;;;;;;33.80;19.20;;;;;;;9.53;100.00;98883.25;5077225;28;20032;-64
2024/01/19 05:10:40;;;;;;;32.50;19.20;;;;;;;9.49;100.00;98889.88;5077966;28;20104;-63
2024/01/19 05:13:05;;;;;;;34.60;20.33;;;;;;;9.50;100.00;98889.69;5076249;28;20036;-63
2024/01/19 05:15:31;;;;;;;29.20;19.02;;;;;;;9.47;100.00;98894.50;5075264;28;20044;-63
2024/01/19 05:17:57;;;;;;;36.55;18.40;;;;;;;9.25;100.00;98904.03;5076564;28;20021;-63
2024/01/19 05:20:23;;;;;;;43.88;17.15;;;;;;;8.79;100.00;98903.91;5077454;28;20028;-63
2024/01/19 05:22:48;;;;;;;32.70;18.20;;;;;;;8.59;100.00;98908.78;5077895;28;20245;-64
2024/01/19 05:25:18;;;;;;;30.90;18.73;;;;;;;8.71;100.00;98908.41;5077400;28;20194;-65
2024/01/19 05:27:47;;;;;;;34.13;17.73;;;;;;;8.76;100.00;98912.19;5077790;28;20055;-64
2024/01/19 05:30:13;;;;;;;49.47;19.77;;;;;;;8.77;100.00;98911.19;5077719;28;20353;-63
2024/01/19 05:32:39;;;;;;;60.38;18.05;;;;;;;8.69;100.00;98927.06;5077293;28;20040;-63
2024/01/19 05:35:05;;;;;;;56.55;21.80;;;;;;;8.40;100.00;98929.44;5077267;28;20256;-64
2024/01/19 05:37:31;;;;;;;41.65;21.58;;;;;;;8.13;100.00;98930.56;5076826;28;20089;-64
2024/01/19 05:39:56;;;;;;;38.42;23.42;;;;;;;8.18;100.00;98939.63;5077145;28;20042;-63
2024/01/19 05:42:22;;;;;;;57.15;24.27;;;;;;;8.20;100.00;98931.53;5077854;28;20062;-63
2024/01/19 05:44:48;;;;;;;37.97;22.08;;;;;;;8.32;100.00;98943.41;5076643;28;20056;-64
2024/01/19 05:47:14;;;;;;;79.60;25.88;;;;;;;8.43;100.00;98960.75;5077201;28;20031;-64
2024/01/19 05:49:42;;;;;;;89.82;28.20;;;;;;;8.34;100.00;98943.28;5077229;28;20052;-65
2024/01/19 05:52:08;;;;;;;100.40;25.90;;;;;;;8.26;100.00;98946.72;5076833;28;20052;-63
2024/01/19 05:54:36;;;;;;;81.90;23.75;;;;;;;8.13;100.00;98962.22;5076816;28;20029;-63
2024/01/19 05:57:02;;;;;;;99.88;25.15;;;;;;;7.96;100.00;98964.03;5076804;28;20326;-64
2024/01/19 05:59:28;;;;;;;93.25;25.35;;;;;;;7.91;100.00;98964.50;5077208;28;20104;-64
2024/01/19 06:01:54;;;;;;;69.13;25.95;;;;;;;7.91;100.00;98961.88;5077231;28;20392;-65
2024/01/19 06:04:19;;;;;;;95.10;25.15;;;;;;;8.07;100.00;98962.88;5076994;28;20134;-63
2024/01/19 06:06:45;;;;;;;78.47;24.98;;;;;;;8.15;100.00;98973.41;5077430;28;20060;-64
2024/01/19 06:09:10;;;;;;;69.18;24.98;;;;;;;8.27;100.00;98970.28;5075885;28;20074;-64
2024/01/19 06:11:36;;;;;;;68.00;28.33;;;;;;;8.35;100.00;98966.88;5075846;28;20032;-65
2024/01/19 06:14:02;;;;;;;68.65;27.17;;;;;;;8.41;100.00;98970.66;5075345;28;20033;-63
2024/01/19 06:16:29;;;;;;;56.90;25.55;;;;;;;8.49;100.00;98968.81;5075918;28;20054;-64
2024/01/19 06:18:54;;;;;;;62.83;27.52;;;;;;;8.52;100.00;98968.50;5075711;28;20326;-64
2024/01/19 06:21:19;;;;;;;63.13;29.65;;;;;;;8.53;100.00;98966.69;5075835;28;20032;-65
2024/01/19 06:23:45;;;;;;;95.25;30.92;;;;;;;8.52;100.00;98979.06;5075896;28;20326;-64
2024/01/19 06:26:11;;;;;;;52.95;24.77;;;;;;;8.32;100.00;98975.91;5075885;28;20353;-63
2024/01/19 06:28:38;;;;;;;56.78;25.80;;;;;;;8.23;100.00;98981.31;5075825;28;21253;-64
2024/01/19 06:31:04;;;;;;;66.25;25.02;;;;;;;8.19;100.00;98972.09;5076442;28;20546;-63
2024/01/19 06:33:30;;;;;;;64.80;28.17;;;;;;;8.30;100.00;98974.41;5076164;28;20796;-65
2024/01/19 06:35:56;;;;;;;75.45;28.23;;;;;;;8.46;100.00;98978.88;5076002;28;20052;-65
2024/01/19 06:38:23;;;;;;;68.47;27.05;;;;;;;8.52;100.00;98980.88;5075776;28;20135;-64
2024/01/19 06:40:48;;;;;;;57.75;27.13;;;;;;;8.52;100.00;98979.06;5075994;28;20322;-64
2024/01/19 06:43:14;;;;;;;53.10;27.05;;;;;;;8.43;100.00;98972.13;5075840;28;20096;-64
2024/01/19 06:45:39;;;;;;;85.35;30.20;;;;;;;8.30;100.00;98967.31;5075784;28;20369;-65
2024/01/19 06:48:05;;;;;;;74.25;28.23;;;;;;;8.41;100.00;98978.56;5075334;28;20273;-64
2024/01/19 06:50:30;;;;;;;231.30;31.90;;;;;;;8.46;100.00;98989.44;5074706;28;20381;-63
2024/01/19 06:52:59;;;;;;;42.42;21.83;;;;;;;8.43;100.00;99000.34;5074894;28;20077;-63
2024/01/19 06:55:24;;;;;;;113.57;26.13;;;;;;;8.53;100.00;98998.34;5075131;28;20339;-63
2024/01/19 06:57:50;;;;;;;82.30;22.58;;;;;;;8.62;100.00;98998.16;5073643;28;20060;-63
2024/01/19 07:00:18;;;;;;;109.43;26.35;;;;;;;8.73;100.00;99002.25;5075827;28;20040;-65
2024/01/19 07:02:44;;;;;;;162.38;32.30;;;;;;;8.86;100.00;98999.91;5075509;28;20372;-63
2024/01/19 07:05:09;;;;;;;92.15;29.65;;;;;;;8.89;100.00;98999.59;5076178;28;20040;-64
2024/01/19 07:07:34;;;;;;;222.27;50.58;;;;;;;8.99;100.00;98996.75;5076627;28;20068;-64
2024/01/19 07:10:00;;;;;;;220.23;55.53;;;;;;;9.04;100.00;98994.41;5076143;28;21097;-63
2024/01/19 07:12:25;;;;;;;101.30;48.40;;;;;;;8.99;100.00;99002.03;5075598;28;20356;-63
2024/01/19 07:14:51;;;;;;;84.60;41.45;;;;;;;9.05;100.00;98995.25;5075840;28;20044;-64
2024/01/19 07:17:17;;;;;;;97.22;39.08;;;;;;;9.17;100.00;99010.53;5074871;28;20197;-64
2024/01/19 07:19:42;;;;;;;91.55;38.67;;;;;;;9.27;100.00;99010.34;5075820;28;20035;-64
2024/01/19 07:22:08;;;;;;;76.40;36.03;;;;;;;9.34;100.00;99021.88;5076128;28;20626;-64
2024/01/19 07:24:35;;;;;;;69.60;36.15;;;;;;;9.05;100.00;99011.91;5076196;28;20362;-64
2024/01/19 07:27:02;;;;;;;47.70;32.58;;;;;;;8.84;100.00;98996.63;5076184;28;20059;-64
2024/01/19 07:29:28;;;;;;;52.70;27.23;;;;;;;8.53;100.00;98993.06;5076117;28;20041;-65
2024/01/19 07:31:54;;;;;;;36.15;23.50;;;;;;;8.31;100.00;98987.41;5075964;28;20063;-65
2024/01/19 07:34:20;;;;;;;37.13;20.85;;;;;;;8.16;100.00;98982.97;5076095;28;20067;-63
2024/01/19 07:36:45;;;;;;;52.85;27.30;;;;;;;8.07;100.00;98987.44;5075502;28;20338;-64
2024/01/19 07:39:11;;;;;;;61.85;31.33;;;;;;;8.10;100.00;98975.72;5076501;28;20036;-64
2024/01/19 07:41:36;;;;;;;77.10;36.10;;;;;;;8.25;100.00;98981.97;5075808;28;20249;-64
2024/01/19 07:44:01;;;;;;;56.70;29.95;;;;;;;8.13;100.00;98976.22;5076338;28;20269;-64
2024/01/19 07:46:27;;;;;;;120.22;34.33;;;;;;;8.27;100.00;98980.81;5075878;28;20110;-63
2024/01/19 07:48:52;;;;;;;52.88;29.83;;;;;;;8.51;100.00;98979.22;5078190;28;20028;-63
2024/01/19 07:51:19;;;;;;;52.15;32.17;;;;;;;8.72;100.00;98982.13;5078978;28;20797;-64
2024/01/19 07:53:45;;;;;;;67.80;30.35;;;;;;;8.92;100.00;98978.13;5078980;28;20223;-65
2024/01/19 07:56:10;;;;;;;56.33;31.30;;;;;;;9.13;100.00;98984.66;5078219;28;20051;-63
2024/01/19 07:58:36;;;;;;;49.58;28.83;;;;;;;9.25;100.00;98975.34;5079068;28;20054;-64
2024/01/19 08:01:02;;;;;;;54.58;27.42;;;;;;;9.42;100.00;98965.56;5079252;28;20051;-63
2024/01/19 08:03:28;;;;;;;52.35;27.65;;;;;;;9.42;100.00;98973.47;5079440;28;20261;-64
2024/01/19 08:05:53;;;;;;;39.10;23.77;;;;;;;9.40;100.00;98973.66;5079254;28;20051;-64
2024/01/19 08:08:19;;;;;;;34.85;20.42;;;;;;;9.30;100.00;98980.94;5079982;28;20319;-64
2024/01/19 08:10:44;;;;;;;34.50;20.35;;;;;;;9.29;100.00;98982.75;5078883;28;20033;-63
2024/01/19 08:13:12;;;;;;;32.15;19.35;;;;;;;9.39;100.00;98992.31;5078995;28;20353;-64
2024/01/19 08:15:37;;;;;;;32.97;20.23;;;;;;;9.48;100.00;99000.03;5079448;28;20048;-64
2024/01/19 08:18:04;;;;;;;35.95;20.33;;;;;;;9.63;100.00;99001.94;5079597;28;20020;-63
2024/01/19 08:20:31;;;;;;;32.92;20.75;;;;;;;9.80;100.00;99011.41;5079338;28;20095;-64
2024/01/19 08:22:57;;;;;;;34.55;21.45;;;;;;;9.95;100.00;99012.31;5079989;28;20036;-64
2024/01/19 08:25:23;;;;;;;33.65;21.50;;;;;;;10.09;100.00;99018.66;5079349;28;20222;-65
2024/01/19 08:27:49;;;;;;;36.28;23.02;;;;;;;10.19;100.00;99021.91;5079546;28;20347;-65
2024/01/19 08:30:19;;;;;;;30.25;20.73;;;;;;;10.39;100.00;99019.63;5079437;28;20039;-64
2024/01/19 08:32:45;;;;;;;29.38;21.75;;;;;;;10.55;100.00;99022.16;5077867;28;20044;-64
2024/01/19 08:35:11;;;;;;;33.03;20.67;;;;;;;10.70;100.00;99015.06;5077541;28;20045;-64
2024/01/19 08:37:41;;;;;;;33.95;22.77;;;;;;;10.80;100.00;99012.16;5079369;28;20159;-63
2024/01/19 08:40:08;;;;;;;32.10;21.50;;;;;;;10.88;100.00;99012.06;5078622;28;20041;-64
2024/01/19 08:42:34;;;;;;;33.25;21.90;;;;;;;11.03;100.00;99007.59;5079668;28;20096;-64
2024/01/19 08:44:59;;;;;;;33.08;22.52;;;;;;;11.17;100.00;99009.41;5079215;28;20138;-65
2024/01/19 08:47:25;;;;;;;29.65;20.90;;;;;;;11.27;100.00;99016.25;5078813;28;20045;-65
2024/01/19 08:49:51;;;;;;;34.42;21.98;;;;;;;11.31;100.00;99013.06;5078460;28;20056;-64
2024/01/19 08:52:16;;;;;;;37.33;24.13;;;;;;;11.46;100.00;99021.84;5078533;28;20036;-64
2024/01/19 08:54:42;;;;;;;40.47;24.88;;;;;;;11.59;100.00;99023.00;5077186;28;20028;-64
2024/01/19 08:57:07;;;;;;;42.75;25.88;;;;;;;11.67;100.00;99005.16;5078828;28;20107;-64
2024/01/19 08:59:33;;;;;;;42.60;26.30;;;;;;;11.70;100.00;99009.25;5078021;28;20047;-65
2024/01/19 09:01:58;;;;;;;41.83;26.33;;;;;;;11.88;100.00;99008.88;5078021;28;20044;-65
2024/01/19 09:04:24;;;;;;;40.80;25.90;;;;;;;12.01;100.00;99009.84;5078645;28;20036;-65
2024/01/19 09:06:51;;;;;;;41.85;23.85;;;;;;;12.16;100.00;99020.38;5078853;28;20045;-64
2024/01/19 09:09:16;;;;;;;38.10;21.98;;;;;;;12.07;100.00;99021.53;5078237;28;20123;-64
2024/01/19 09:11:42;;;;;;;33.08;22.88;;;;;;;12.02;100.00;99018.63;5078830;28;20033;-64
2024/01/19 09:14:09;;;;;;;33.35;23.35;;;;;;;12.01;100.00;99015.13;5076118;28;20323;-64
2024/01/19 09:16:35;;;;;;;39.28;25.30;;;;;;;12.12;100.00;99011.16;5077948;28;20040;-64
2024/01/19 09:19:00;;;;;;;45.72;28.77;;;;;;;12.23;100.00;99009.84;5078598;28;20028;-64
2024/01/19 09:21:26;;;;;;;46.22;30.25;;;;;;;12.27;100.00;99008.44;5078312;28;20237;-65
2024/01/19 09:23:52;;;;;;;42.70;27.33;;;;;;;12.28;100.00;99000.28;5078577;28;20028;-65
2024/01/19 09:26:21;;;;;;;43.45;28.13;;;;;;;12.40;100.00;99013.88;5079246;28;20334;-64
2024/01/19 09:28:47;;;;;;;46.42;29.02;;;;;;;12.23;100.00;99007.19;5078477;28;20040;-64
2024/01/19 09:31:14;;;;;;;45.45;30.50;;;;;;;12.36;100.00;99008.13;5078383;28;20105;-64
2024/01/19 09:33:39;;;;;;;48.67;30.10;;;;;;;12.46;100.00;99002.47;5077830;28;20055;-64
2024/01/19 09:36:06;;;;;;;39.30;27.40;;;;;;;12.54;100.00;99004.19;5078344;28;20100;-65
2024/01/19 09:38:34;;;;;;;45.55;29.38;;;;;;;12.54;100.00;99001.53;5077757;28;20040;-65
2024/01/19 09:41:30;;;;;;;43.58;28.55;;;;;;;12.57;100.00;99001.16;5078045;28;20074;-64
2024/01/19 09:43:58;;;;;;;45.72;28.92;;;;;;;12.65;100.00;99004.50;5076911;28;20269;-64
2024/01/19 09:46:28;;;;;;;46.97;28.48;;;;;;;12.54;100.00;98996.22;5077675;28;20330;-64
2024/01/19 09:49:02;;;;;;;36.60;24.80;;;;;;;12.51;100.00;98986.81;5077844;28;20040;-64
2024/01/19 09:51:45;;;;;;;42.67;25.63;;;;;;;12.51;100.00;98973.53;5077790;28;20117;-65
2024/01/19 09:54:20;;;;;;;36.70;23.95;;;;;;;12.63;100.00;98972.00;5077840;28;20044;-65
2024/01/19 09:56:46;;;;;;;32.05;22.30;;;;;;;12.70;100.00;98970.19;5077920;28;20103;-65
2024/01/19 09:59:13;;;;;;;31.48;22.10;;;;;;;12.73;100.00;98972.47;5077464;28;20036;-64
2024/01/19 10:01:39;;;;;;;34.10;22.50;;;;;;;12.67;100.00;98959.16;5076570;28;20116;-64
2024/01/19 10:04:10;;;;;;;31.25;21.90;;;;;;;12.53;100.00;98960.06;5077364;28;20029;-64
2024/01/19 10:06:36;;;;;;;35.40;21.90;;;;;;;12.36;100.00;98962.97;5077208;28;20064;-64
2024/01/19 10:09:03;;;;;;;33.13;23.17;;;;;;;12.41;100.00;98967.72;5077564;28;20037;-64
2024/01/19 10:11:30;;;;;;;37.67;22.15;;;;;;;12.58;100.00;98961.13;5075802;28;20036;-64
2024/01/19 10:13:56;;;;;;;34.42;22.00;;;;;;;12.73;100.00;98956.53;5078200;28;20082;-65
2024/01/19 10:16:22;;;;;;;33.25;21.35;;;;;;;12.79;100.00;98947.78;5077261;28;20151;-64
2024/01/19 10:18:49;;;;;;;34.30;21.20;;;;;;;12.90;100.00;98945.59;5077180;28;20280;-63
2024/01/19 10:21:26;;;;;;;32.00;20.75;;;;;;;12.95;100.00;98946.63;5077393;28;20068;-64
2024/01/19 10:24:11;;;;;;;32.30;20.25;;;;;;;13.10;100.00;98954.47;5076818;28;20043;-64
2024/01/19 10:26:37;;;;;;;31.40;20.70;;;;;;;13.12;100.00;98952.44;5076754;28;20041;-64
2024/01/19 10:29:13;;;;;;;33.05;21.13;;;;;;;13.19;100.00;98952.50;5077734;28;20024;-65
2024/01/19 10:31:41;;;;;;;31.60;21.40;;;;;;;13.25;100.00;98949.88;5077547;28;20040;-65
2024/01/19 10:34:20;;;;;;;31.25;20.25;;;;;;;13.34;100.00;98948.69;5077178;28;20032;-65
2024/01/19 10:36:46;;;;;;;30.83;19.67;;;;;;;13.40;100.00;98941.75;5076628;28;20048;-64
2024/01/19 10:39:22;;;;;;;29.55;19.73;;;;;;;13.41;100.00;98940.72;5077472;28;20297;-64
2024/01/19 10:41:49;;;;;;;29.30;20.35;;;;;;;13.39;100.00;98934.78;5077076;28;20041;-65
2024/01/19 10:44:16;;;;;;;29.88;19.27;;;;;;;13.45;100.00;98920.69;5077358;28;20036;-64
2024/01/19 10:46:43;;;;;;;27.13;18.65;;;;;;;13.45;100.00;98923.34;5077431;28;20051;-64
2024/01/19 10:49:10;;;;;;;27.65;18.42;;;;;;;13.51;100.00;98919.91;5077354;28;20062;-64
2024/01/19 10:51:45;;;;;;;27.52;17.88;;;;;;;13.58;100.00;98925.25;5076966;28;20350;-64
2024/01/19 10:54:23;;;;;;;27.58;17.35;;;;;;;13.53;100.00;98912.56;5077119;28;20090;-64
2024/01/19 10:57:00;;;;;;;27.02;18.38;;;;;;;13.65;100.00;98915.44;5076271;28;20051;-64
2024/01/19 10:59:25;;;;;;;26.17;17.73;;;;;;;13.69;100.00;98911.38;5076159;28;20349;-64
2024/01/19 11:01:57;;;;;;;29.25;18.95;;;;;;;13.72;100.00;98909.13;5075102;28;20056;-64
2024/01/19 11:04:23;;;;;;;30.00;18.00;;;;;;;13.77;100.00;98905.03;5077566;28;20052;-65
2024/01/19 11:06:48;;;;;;;29.38;18.67;;;;;;;13.78;100.00;98904.00;5077308;28;20038;-65
2024/01/19 11:09:14;;;;;;;28.27;17.92;;;;;;;13.83;100.00;98896.25;5076320;28;20334;-64
2024/01/19 11:11:53;;;;;;;26.88;18.10;;;;;;;13.86;100.00;98891.31;5076966;28;20040;-64